sensor_id;sensor_type;location;lat;lon;timestamp;P1;durP1;ratioP1;P2;durP2;ratioP2
68140;SDS011;54941;52.220;104.306;2022-08-19T00:04:35;11.10;;;5.85;;
68140;SDS011;54941;52.220;104.306;2022-08-19T00:07:22;11.52;;;6.05;;
68140;SDS011;54941;52.220;104.306;2022-08-19T00:10:07;10.32;;;5.72;;
68140;SDS011;54941;52.220;104.306;2022-08-19T00:12:55;10.00;;;5.38;;
68140;SDS011;54941;52.220;104.306;2022-08-19T00:15:40;9.10;;;5.50;;
68140;SDS011;54941;52.220;104.306;2022-08-19T00:18:25;10.07;;;6.00;;
68140;SDS011;54941;52.220;104.306;2022-08-19T00:21:10;9.40;;;5.45;;
68140;SDS011;54941;52.220;104.306;2022-08-19T00:23:57;9.55;;;5.32;;
68140;SDS011;54941;52.220;104.306;2022-08-19T00:26:42;10.55;;;5.70;;
68140;SDS011;54941;52.220;104.306;2022-08-19T00:29:28;13.73;;;7.45;;
68140;SDS011;54941;52.220;104.306;2022-08-19T00:32:14;12.07;;;6.78;;
68140;SDS011;54941;52.220;104.306;2022-08-19T00:34:59;12.57;;;7.68;;
68140;SDS011;54941;52.220;104.306;2022-08-19T00:37:44;13.02;;;8.18;;
68140;SDS011;54941;52.220;104.306;2022-08-19T00:40:33;15.15;;;9.35;;
68140;SDS011;54941;52.220;104.306;2022-08-19T00:43:18;20.75;;;12.23;;
68140;SDS011;54941;52.220;104.306;2022-08-19T00:46:06;20.15;;;11.35;;
68140;SDS011;54941;52.220;104.306;2022-08-19T00:48:51;19.40;;;11.80;;
68140;SDS011;54941;52.220;104.306;2022-08-19T00:51:36;16.98;;;10.18;;
68140;SDS011;54941;52.220;104.306;2022-08-19T00:54:21;16.42;;;9.88;;
68140;SDS011;54941;52.220;104.306;2022-08-19T00:57:10;17.80;;;11.25;;
68140;SDS011;54941;52.220;104.306;2022-08-19T00:59:58;17.15;;;11.60;;
68140;SDS011;54941;52.220;104.306;2022-08-19T01:02:44;17.10;;;10.75;;
68140;SDS011;54941;52.220;104.306;2022-08-19T01:05:29;19.42;;;12.48;;
68140;SDS011;54941;52.220;104.306;2022-08-19T01:08:15;21.77;;;14.82;;
68140;SDS011;54941;52.220;104.306;2022-08-19T01:11:01;23.55;;;16.73;;
68140;SDS011;54941;52.220;104.306;2022-08-19T01:13:48;22.73;;;16.10;;
68140;SDS011;54941;52.220;104.306;2022-08-19T01:16:34;20.80;;;14.65;;
68140;SDS011;54941;52.220;104.306;2022-08-19T01:19:23;17.30;;;12.98;;
68140;SDS011;54941;52.220;104.306;2022-08-19T01:22:12;20.80;;;15.40;;
68140;SDS011;54941;52.220;104.306;2022-08-19T01:25:04;20.77;;;14.48;;
68140;SDS011;54941;52.220;104.306;2022-08-19T01:27:50;21.65;;;16.13;;
68140;SDS011;54941;52.220;104.306;2022-08-19T01:30:36;23.45;;;18.58;;
68140;SDS011;54941;52.220;104.306;2022-08-19T01:33:21;21.23;;;17.50;;
68140;SDS011;54941;52.220;104.306;2022-08-19T01:36:07;24.75;;;19.98;;
68140;SDS011;54941;52.220;104.306;2022-08-19T01:38:55;25.10;;;18.25;;
68140;SDS011;54941;52.220;104.306;2022-08-19T01:41:42;24.02;;;18.20;;
68140;SDS011;54941;52.220;104.306;2022-08-19T01:44:27;23.38;;;17.08;;
68140;SDS011;54941;52.220;104.306;2022-08-19T01:47:13;23.38;;;17.13;;
68140;SDS011;54941;52.220;104.306;2022-08-19T01:49:58;18.98;;;14.52;;
68140;SDS011;54941;52.220;104.306;2022-08-19T01:52:43;19.17;;;15.32;;
68140;SDS011;54941;52.220;104.306;2022-08-19T01:55:29;15.80;;;12.70;;
68140;SDS011;54941;52.220;104.306;2022-08-19T01:58:17;18.75;;;13.80;;
68140;SDS011;54941;52.220;104.306;2022-08-19T02:01:05;17.45;;;12.88;;
68140;SDS011;54941;52.220;104.306;2022-08-19T02:03:50;16.88;;;12.68;;
68140;SDS011;54941;52.220;104.306;2022-08-19T02:06:36;18.55;;;12.63;;
68140;SDS011;54941;52.220;104.306;2022-08-19T02:09:21;15.30;;;11.48;;
68140;SDS011;54941;52.220;104.306;2022-08-19T02:12:06;16.80;;;12.77;;
68140;SDS011;54941;52.220;104.306;2022-08-19T02:14:53;15.65;;;12.30;;
68140;SDS011;54941;52.220;104.306;2022-08-19T02:17:38;17.02;;;11.70;;
68140;SDS011;54941;52.220;104.306;2022-08-19T02:20:23;17.27;;;11.93;;
68140;SDS011;54941;52.220;104.306;2022-08-19T02:23:09;14.82;;;10.27;;
68140;SDS011;54941;52.220;104.306;2022-08-19T02:25:55;20.38;;;11.38;;
68140;SDS011;54941;52.220;104.306;2022-08-19T02:28:40;17.35;;;9.35;;
68140;SDS011;54941;52.220;104.306;2022-08-19T02:31:27;15.50;;;8.93;;
68140;SDS011;54941;52.220;104.306;2022-08-19T02:34:12;18.05;;;10.20;;
68140;SDS011;54941;52.220;104.306;2022-08-19T02:36:57;14.25;;;10.20;;
68140;SDS011;54941;52.220;104.306;2022-08-19T02:39:42;13.23;;;8.93;;
68140;SDS011;54941;52.220;104.306;2022-08-19T02:42:27;13.60;;;8.30;;
68140;SDS011;54941;52.220;104.306;2022-08-19T02:45:13;11.60;;;8.25;;
68140;SDS011;54941;52.220;104.306;2022-08-19T02:48:01;10.70;;;7.82;;
68140;SDS011;54941;52.220;104.306;2022-08-19T02:50:47;10.77;;;7.15;;
68140;SDS011;54941;52.220;104.306;2022-08-19T02:53:32;8.55;;;6.55;;
68140;SDS011;54941;52.220;104.306;2022-08-19T02:56:17;9.13;;;6.97;;
68140;SDS011;54941;52.220;104.306;2022-08-19T02:59:03;9.80;;;7.10;;
68140;SDS011;54941;52.220;104.306;2022-08-19T03:01:50;10.63;;;6.45;;
68140;SDS011;54941;52.220;104.306;2022-08-19T03:04:36;10.23;;;6.40;;
68140;SDS011;54941;52.220;104.306;2022-08-19T03:07:21;9.38;;;5.05;;
68140;SDS011;54941;52.220;104.306;2022-08-19T03:10:06;7.43;;;4.47;;
68140;SDS011;54941;52.220;104.306;2022-08-19T03:12:51;8.18;;;4.80;;
68140;SDS011;54941;52.220;104.306;2022-08-19T03:15:38;10.80;;;5.05;;
68140;SDS011;54941;52.220;104.306;2022-08-19T03:18:24;8.55;;;5.38;;
68140;SDS011;54941;52.220;104.306;2022-08-19T03:21:14;5.75;;;4.15;;
68140;SDS011;54941;52.220;104.306;2022-08-19T03:24:00;4.63;;;3.28;;
68140;SDS011;54941;52.220;104.306;2022-08-19T03:26:48;4.80;;;3.20;;
68140;SDS011;54941;52.220;104.306;2022-08-19T03:29:36;7.20;;;3.95;;
68140;SDS011;54941;52.220;104.306;2022-08-19T03:32:21;5.53;;;4.28;;
68140;SDS011;54941;52.220;104.306;2022-08-19T03:35:06;4.70;;;3.30;;
68140;SDS011;54941;52.220;104.306;2022-08-19T03:37:52;8.10;;;4.70;;
68140;SDS011;54941;52.220;104.306;2022-08-19T03:40:37;7.97;;;4.68;;
68140;SDS011;54941;52.220;104.306;2022-08-19T03:43:22;6.47;;;4.30;;
68140;SDS011;54941;52.220;104.306;2022-08-19T03:46:08;7.40;;;4.22;;
68140;SDS011;54941;52.220;104.306;2022-08-19T03:48:56;6.03;;;3.95;;
68140;SDS011;54941;52.220;104.306;2022-08-19T03:51:44;7.90;;;3.92;;
68140;SDS011;54941;52.220;104.306;2022-08-19T03:54:32;6.88;;;4.55;;
68140;SDS011;54941;52.220;104.306;2022-08-19T03:57:17;7.78;;;4.70;;
68140;SDS011;54941;52.220;104.306;2022-08-19T04:00:03;5.63;;;4.03;;
68140;SDS011;54941;52.220;104.306;2022-08-19T04:02:49;7.25;;;4.40;;
68140;SDS011;54941;52.220;104.306;2022-08-19T04:05:34;9.02;;;5.15;;
68140;SDS011;54941;52.220;104.306;2022-08-19T04:08:19;9.43;;;4.93;;
68140;SDS011;54941;52.220;104.306;2022-08-19T04:11:08;8.75;;;4.95;;
68140;SDS011;54941;52.220;104.306;2022-08-19T04:13:54;6.25;;;3.95;;
68140;SDS011;54941;52.220;104.306;2022-08-19T04:16:39;7.07;;;3.60;;
68140;SDS011;54941;52.220;104.306;2022-08-19T04:19:25;5.55;;;3.17;;
68140;SDS011;54941;52.220;104.306;2022-08-19T04:22:10;6.53;;;3.05;;
68140;SDS011;54941;52.220;104.306;2022-08-19T04:24:55;6.05;;;3.60;;
68140;SDS011;54941;52.220;104.306;2022-08-19T04:27:41;6.18;;;3.95;;
68140;SDS011;54941;52.220;104.306;2022-08-19T04:30:26;6.00;;;4.15;;
68140;SDS011;54941;52.220;104.306;2022-08-19T04:33:12;5.30;;;2.97;;
68140;SDS011;54941;52.220;104.306;2022-08-19T04:35:58;3.95;;;2.42;;
68140;SDS011;54941;52.220;104.306;2022-08-19T04:38:43;4.78;;;3.30;;
68140;SDS011;54941;52.220;104.306;2022-08-19T04:41:28;5.13;;;3.75;;
68140;SDS011;54941;52.220;104.306;2022-08-19T04:44:15;8.35;;;4.53;;
68140;SDS011;54941;52.220;104.306;2022-08-19T04:47:00;7.38;;;4.40;;
68140;SDS011;54941;52.220;104.306;2022-08-19T04:49:45;7.53;;;5.18;;
68140;SDS011;54941;52.220;104.306;2022-08-19T04:52:30;7.57;;;4.43;;
68140;SDS011;54941;52.220;104.306;2022-08-19T04:55:14;11.80;;;4.72;;
68140;SDS011;54941;52.220;104.306;2022-08-19T04:57:59;7.15;;;4.75;;
68140;SDS011;54941;52.220;104.306;2022-08-19T05:00:46;7.95;;;5.05;;
68140;SDS011;54941;52.220;104.306;2022-08-19T05:03:31;9.20;;;4.78;;
68140;SDS011;54941;52.220;104.306;2022-08-19T05:06:17;9.98;;;4.40;;
68140;SDS011;54941;52.220;104.306;2022-08-19T05:09:04;8.68;;;4.40;;
68140;SDS011;54941;52.220;104.306;2022-08-19T05:11:49;7.07;;;4.80;;
68140;SDS011;54941;52.220;104.306;2022-08-19T05:14:34;7.75;;;4.78;;
68140;SDS011;54941;52.220;104.306;2022-08-19T05:17:20;9.02;;;5.30;;
68140;SDS011;54941;52.220;104.306;2022-08-19T05:20:06;9.85;;;5.05;;
68140;SDS011;54941;52.220;104.306;2022-08-19T05:22:52;9.35;;;5.43;;
68140;SDS011;54941;52.220;104.306;2022-08-19T05:25:38;11.35;;;6.38;;
68140;SDS011;54941;52.220;104.306;2022-08-19T05:28:23;11.70;;;6.22;;
68140;SDS011;54941;52.220;104.306;2022-08-19T05:31:08;10.52;;;6.03;;
68140;SDS011;54941;52.220;104.306;2022-08-19T05:33:55;8.85;;;5.35;;
68140;SDS011;54941;52.220;104.306;2022-08-19T05:36:41;11.25;;;5.82;;
68140;SDS011;54941;52.220;104.306;2022-08-19T05:39:27;9.80;;;5.72;;
68140;SDS011;54941;52.220;104.306;2022-08-19T05:42:15;12.70;;;6.50;;
68140;SDS011;54941;52.220;104.306;2022-08-19T05:45:00;11.48;;;5.72;;
68140;SDS011;54941;52.220;104.306;2022-08-19T05:47:45;11.25;;;5.68;;
68140;SDS011;54941;52.220;104.306;2022-08-19T05:50:31;8.90;;;5.32;;
68140;SDS011;54941;52.220;104.306;2022-08-19T05:53:17;10.82;;;5.65;;
68140;SDS011;54941;52.220;104.306;2022-08-19T05:56:03;9.90;;;5.40;;
68140;SDS011;54941;52.220;104.306;2022-08-19T05:58:49;10.20;;;5.15;;
68140;SDS011;54941;52.220;104.306;2022-08-19T06:01:35;9.80;;;4.45;;
68140;SDS011;54941;52.220;104.306;2022-08-19T06:04:20;9.23;;;5.15;;
68140;SDS011;54941;52.220;104.306;2022-08-19T06:07:07;8.60;;;5.50;;
68140;SDS011;54941;52.220;104.306;2022-08-19T06:09:52;9.20;;;5.50;;
68140;SDS011;54941;52.220;104.306;2022-08-19T06:12:37;15.48;;;6.93;;
68140;SDS011;54941;52.220;104.306;2022-08-19T06:15:23;11.30;;;5.60;;
68140;SDS011;54941;52.220;104.306;2022-08-19T06:18:08;11.20;;;5.65;;
68140;SDS011;54941;52.220;104.306;2022-08-19T06:20:53;10.80;;;5.93;;
68140;SDS011;54941;52.220;104.306;2022-08-19T06:23:39;12.90;;;7.20;;
68140;SDS011;54941;52.220;104.306;2022-08-19T06:26:24;13.10;;;5.85;;
68140;SDS011;54941;52.220;104.306;2022-08-19T06:29:10;10.27;;;6.40;;
68140;SDS011;54941;52.220;104.306;2022-08-19T06:31:57;10.70;;;5.80;;
68140;SDS011;54941;52.220;104.306;2022-08-19T06:34:43;7.97;;;4.28;;
68140;SDS011;54941;52.220;104.306;2022-08-19T06:37:28;9.07;;;4.60;;
68140;SDS011;54941;52.220;104.306;2022-08-19T06:40:15;11.88;;;5.40;;
68140;SDS011;54941;52.220;104.306;2022-08-19T06:43:00;9.48;;;5.25;;
68140;SDS011;54941;52.220;104.306;2022-08-19T06:45:45;9.20;;;5.82;;
68140;SDS011;54941;52.220;104.306;2022-08-19T06:48:30;10.57;;;5.75;;
68140;SDS011;54941;52.220;104.306;2022-08-19T06:51:15;10.23;;;4.88;;
68140;SDS011;54941;52.220;104.306;2022-08-19T06:54:01;9.10;;;5.22;;
68140;SDS011;54941;52.220;104.306;2022-08-19T06:56:48;9.55;;;5.00;;
68140;SDS011;54941;52.220;104.306;2022-08-19T06:59:33;10.70;;;5.22;;
68140;SDS011;54941;52.220;104.306;2022-08-19T07:02:18;8.30;;;4.18;;
68140;SDS011;54941;52.220;104.306;2022-08-19T07:05:04;7.28;;;3.90;;
68140;SDS011;54941;52.220;104.306;2022-08-19T07:07:50;8.90;;;3.83;;
68140;SDS011;54941;52.220;104.306;2022-08-19T07:10:35;8.30;;;4.30;;
68140;SDS011;54941;52.220;104.306;2022-08-19T07:13:22;6.60;;;4.28;;
68140;SDS011;54941;52.220;104.306;2022-08-19T07:16:07;7.50;;;4.55;;
68140;SDS011;54941;52.220;104.306;2022-08-19T07:18:52;6.15;;;4.28;;
68140;SDS011;54941;52.220;104.306;2022-08-19T07:21:38;7.40;;;4.30;;
68140;SDS011;54941;52.220;104.306;2022-08-19T07:24:23;9.88;;;4.65;;
68140;SDS011;54941;52.220;104.306;2022-08-19T07:27:10;7.82;;;4.40;;
68140;SDS011;54941;52.220;104.306;2022-08-19T07:30:00;8.40;;;4.60;;
68140;SDS011;54941;52.220;104.306;2022-08-19T07:32:46;7.97;;;4.15;;
68140;SDS011;54941;52.220;104.306;2022-08-19T07:35:31;7.35;;;4.13;;
68140;SDS011;54941;52.220;104.306;2022-08-19T07:38:16;8.10;;;4.55;;
68140;SDS011;54941;52.220;104.306;2022-08-19T07:41:01;9.38;;;4.70;;
68140;SDS011;54941;52.220;104.306;2022-08-19T07:43:46;7.82;;;3.85;;
68140;SDS011;54941;52.220;104.306;2022-08-19T07:46:34;6.63;;;4.20;;
68140;SDS011;54941;52.220;104.306;2022-08-19T07:49:22;6.55;;;4.10;;
68140;SDS011;54941;52.220;104.306;2022-08-19T07:52:08;5.57;;;3.60;;
68140;SDS011;54941;52.220;104.306;2022-08-19T07:54:54;6.95;;;3.97;;
68140;SDS011;54941;52.220;104.306;2022-08-19T07:57:39;8.27;;;4.70;;
68140;SDS011;54941;52.220;104.306;2022-08-19T08:00:24;6.30;;;4.63;;
68140;SDS011;54941;52.220;104.306;2022-08-19T08:03:11;8.43;;;4.55;;
68140;SDS011;54941;52.220;104.306;2022-08-19T08:08:41;7.72;;;4.28;;
68140;SDS011;54941;52.220;104.306;2022-08-19T08:11:26;7.03;;;4.28;;
68140;SDS011;54941;52.220;104.306;2022-08-19T08:14:13;7.25;;;4.22;;
68140;SDS011;54941;52.220;104.306;2022-08-19T08:16:58;6.00;;;3.70;;
68140;SDS011;54941;52.220;104.306;2022-08-19T08:19:47;5.65;;;4.10;;
68140;SDS011;54941;52.220;104.306;2022-08-19T08:22:32;7.93;;;4.40;;
68140;SDS011;54941;52.220;104.306;2022-08-19T08:25:18;8.00;;;4.50;;
68140;SDS011;54941;52.220;104.306;2022-08-19T08:28:05;7.38;;;4.40;;
68140;SDS011;54941;52.220;104.306;2022-08-19T08:30:50;7.07;;;4.35;;
68140;SDS011;54941;52.220;104.306;2022-08-19T08:33:35;7.63;;;4.50;;
68140;SDS011;54941;52.220;104.306;2022-08-19T08:36:21;8.05;;;4.22;;
68140;SDS011;54941;52.220;104.306;2022-08-19T08:39:07;7.30;;;4.43;;
68140;SDS011;54941;52.220;104.306;2022-08-19T08:41:53;9.80;;;4.28;;
68140;SDS011;54941;52.220;104.306;2022-08-19T08:44:50;7.53;;;4.18;;
68140;SDS011;54941;52.220;104.306;2022-08-19T08:47:39;7.32;;;3.88;;
68140;SDS011;54941;52.220;104.306;2022-08-19T08:50:29;5.80;;;3.63;;
68140;SDS011;54941;52.220;104.306;2022-08-19T08:56:09;6.53;;;3.33;;
68140;SDS011;54941;52.220;104.306;2022-08-19T08:58:57;5.85;;;3.42;;
68140;SDS011;54941;52.220;104.306;2022-08-19T09:01:43;7.18;;;4.25;;
68140;SDS011;54941;52.220;104.306;2022-08-19T09:04:28;6.93;;;3.92;;
68140;SDS011;54941;52.220;104.306;2022-08-19T09:07:17;6.03;;;3.40;;
68140;SDS011;54941;52.220;104.306;2022-08-19T09:10:14;5.97;;;3.40;;
68140;SDS011;54941;52.220;104.306;2022-08-19T09:13:07;4.55;;;3.33;;
68140;SDS011;54941;52.220;104.306;2022-08-19T09:16:00;4.13;;;3.05;;
68140;SDS011;54941;52.220;104.306;2022-08-19T09:18:49;6.53;;;3.20;;
68140;SDS011;54941;52.220;104.306;2022-08-19T09:21:36;5.85;;;3.20;;
68140;SDS011;54941;52.220;104.306;2022-08-19T09:24:22;6.35;;;2.90;;
68140;SDS011;54941;52.220;104.306;2022-08-19T09:27:08;5.65;;;3.38;;
68140;SDS011;54941;52.220;104.306;2022-08-19T09:29:53;6.85;;;3.55;;
68140;SDS011;54941;52.220;104.306;2022-08-19T09:32:39;5.90;;;3.25;;
68140;SDS011;54941;52.220;104.306;2022-08-19T09:35:25;6.70;;;3.03;;
68140;SDS011;54941;52.220;104.306;2022-08-19T09:38:11;5.15;;;3.10;;
68140;SDS011;54941;52.220;104.306;2022-08-19T09:40:56;7.28;;;3.13;;
68140;SDS011;54941;52.220;104.306;2022-08-19T09:43:49;5.07;;;2.65;;
68140;SDS011;54941;52.220;104.306;2022-08-19T09:46:35;4.00;;;2.53;;
68140;SDS011;54941;52.220;104.306;2022-08-19T09:49:20;5.28;;;2.70;;
68140;SDS011;54941;52.220;104.306;2022-08-19T09:52:05;4.15;;;2.63;;
68140;SDS011;54941;52.220;104.306;2022-08-19T09:54:52;5.25;;;2.80;;
68140;SDS011;54941;52.220;104.306;2022-08-19T09:57:37;7.57;;;3.30;;
68140;SDS011;54941;52.220;104.306;2022-08-19T10:00:24;6.30;;;3.00;;
68140;SDS011;54941;52.220;104.306;2022-08-19T10:03:09;6.32;;;2.95;;
68140;SDS011;54941;52.220;104.306;2022-08-19T10:05:54;8.15;;;3.17;;
68140;SDS011;54941;52.220;104.306;2022-08-19T10:08:41;5.60;;;3.72;;
68140;SDS011;54941;52.220;104.306;2022-08-19T10:11:26;7.28;;;3.17;;
68140;SDS011;54941;52.220;104.306;2022-08-19T10:14:11;5.10;;;2.95;;
68140;SDS011;54941;52.220;104.306;2022-08-19T10:16:57;9.35;;;3.25;;
68140;SDS011;54941;52.220;104.306;2022-08-19T10:19:42;4.93;;;2.17;;
68140;SDS011;54941;52.220;104.306;2022-08-19T10:22:27;7.20;;;2.90;;
68140;SDS011;54941;52.220;104.306;2022-08-19T10:25:12;7.28;;;3.05;;
68140;SDS011;54941;52.220;104.306;2022-08-19T10:27:57;7.22;;;3.00;;
68140;SDS011;54941;52.220;104.306;2022-08-19T10:30:42;6.63;;;2.92;;
68140;SDS011;54941;52.220;104.306;2022-08-19T10:33:28;6.28;;;3.00;;
68140;SDS011;54941;52.220;104.306;2022-08-19T10:36:15;6.90;;;2.40;;
68140;SDS011;54941;52.220;104.306;2022-08-19T10:39:04;5.45;;;2.40;;
68140;SDS011;54941;52.220;104.306;2022-08-19T10:41:50;6.18;;;2.78;;
68140;SDS011;54941;52.220;104.306;2022-08-19T10:44:35;5.70;;;2.50;;
68140;SDS011;54941;52.220;104.306;2022-08-19T10:47:20;6.82;;;3.05;;
68140;SDS011;54941;52.220;104.306;2022-08-19T10:50:08;7.75;;;2.63;;
68140;SDS011;54941;52.220;104.306;2022-08-19T10:52:53;7.43;;;2.67;;
68140;SDS011;54941;52.220;104.306;2022-08-19T10:55:38;7.15;;;2.67;;
68140;SDS011;54941;52.220;104.306;2022-08-19T10:58:23;5.32;;;2.47;;
68140;SDS011;54941;52.220;104.306;2022-08-19T11:01:08;7.90;;;2.75;;
68140;SDS011;54941;52.220;104.306;2022-08-19T11:03:53;8.70;;;3.30;;
68140;SDS011;54941;52.220;104.306;2022-08-19T11:06:40;6.10;;;3.40;;
68140;SDS011;54941;52.220;104.306;2022-08-19T11:09:25;8.93;;;3.58;;
68140;SDS011;54941;52.220;104.306;2022-08-19T11:12:11;7.82;;;3.88;;
68140;SDS011;54941;52.220;104.306;2022-08-19T11:14:56;9.32;;;4.30;;
68140;SDS011;54941;52.220;104.306;2022-08-19T11:17:41;7.35;;;4.70;;
68140;SDS011;54941;52.220;104.306;2022-08-19T11:20:26;8.50;;;4.22;;
68140;SDS011;54941;52.220;104.306;2022-08-19T11:23:12;7.38;;;3.83;;
68140;SDS011;54941;52.220;104.306;2022-08-19T11:25:57;7.88;;;4.80;;
68140;SDS011;54941;52.220;104.306;2022-08-19T11:28:42;6.63;;;4.15;;
68140;SDS011;54941;52.220;104.306;2022-08-19T11:31:28;9.10;;;4.10;;
68140;SDS011;54941;52.220;104.306;2022-08-19T11:34:15;6.40;;;4.03;;
68140;SDS011;54941;52.220;104.306;2022-08-19T11:39:48;7.18;;;4.18;;
68140;SDS011;54941;52.220;104.306;2022-08-19T11:42:33;6.40;;;4.07;;
68140;SDS011;54941;52.220;104.306;2022-08-19T11:45:18;7.68;;;4.13;;
68140;SDS011;54941;52.220;104.306;2022-08-19T11:48:03;6.75;;;3.92;;
68140;SDS011;54941;52.220;104.306;2022-08-19T11:50:48;10.77;;;4.40;;
68140;SDS011;54941;52.220;104.306;2022-08-19T11:53:34;11.93;;;6.85;;
68140;SDS011;54941;52.220;104.306;2022-08-19T11:56:22;14.02;;;8.20;;
68140;SDS011;54941;52.220;104.306;2022-08-19T11:59:08;8.43;;;4.80;;
68140;SDS011;54941;52.220;104.306;2022-08-19T12:01:53;13.65;;;5.40;;
68140;SDS011;54941;52.220;104.306;2022-08-19T12:04:38;10.10;;;6.13;;
68140;SDS011;54941;52.220;104.306;2022-08-19T12:07:23;22.77;;;13.45;;
68140;SDS011;54941;52.220;104.306;2022-08-19T12:10:08;12.43;;;6.90;;
68140;SDS011;54941;52.220;104.306;2022-08-19T12:12:56;9.02;;;5.50;;
68140;SDS011;54941;52.220;104.306;2022-08-19T12:15:41;10.48;;;5.20;;
68140;SDS011;54941;52.220;104.306;2022-08-19T12:18:26;7.32;;;4.70;;
68140;SDS011;54941;52.220;104.306;2022-08-19T12:21:11;7.28;;;4.82;;
68140;SDS011;54941;52.220;104.306;2022-08-19T12:23:57;11.32;;;5.07;;
68140;SDS011;54941;52.220;104.306;2022-08-19T12:26:43;7.82;;;4.95;;
68140;SDS011;54941;52.220;104.306;2022-08-19T12:29:30;9.48;;;6.03;;
68140;SDS011;54941;52.220;104.306;2022-08-19T12:32:15;12.35;;;7.25;;
68140;SDS011;54941;52.220;104.306;2022-08-19T12:35:00;14.27;;;10.25;;
68140;SDS011;54941;52.220;104.306;2022-08-19T12:37:45;17.00;;;11.88;;
68140;SDS011;54941;52.220;104.306;2022-08-19T12:40:31;14.27;;;8.25;;
68140;SDS011;54941;52.220;104.306;2022-08-19T12:43:19;14.07;;;8.93;;
68140;SDS011;54941;52.220;104.306;2022-08-19T12:46:06;25.00;;;14.32;;
68140;SDS011;54941;52.220;104.306;2022-08-19T12:48:52;16.10;;;9.65;;
68140;SDS011;54941;52.220;104.306;2022-08-19T12:51:37;17.25;;;9.95;;
68140;SDS011;54941;52.220;104.306;2022-08-19T12:54:23;13.82;;;8.02;;
68140;SDS011;54941;52.220;104.306;2022-08-19T12:57:08;14.82;;;8.57;;
68140;SDS011;54941;52.220;104.306;2022-08-19T12:59:54;14.18;;;8.23;;
68140;SDS011;54941;52.220;104.306;2022-08-19T13:02:41;16.20;;;8.45;;
68140;SDS011;54941;52.220;104.306;2022-08-19T13:05:28;23.77;;;12.98;;
68140;SDS011;54941;52.220;104.306;2022-08-19T13:08:14;22.95;;;13.13;;
68140;SDS011;54941;52.220;104.306;2022-08-19T13:11:06;17.70;;;11.45;;
68140;SDS011;54941;52.220;104.306;2022-08-19T13:13:52;17.33;;;11.38;;
68140;SDS011;54941;52.220;104.306;2022-08-19T13:16:37;23.27;;;11.65;;
68140;SDS011;54941;52.220;104.306;2022-08-19T13:19:23;19.58;;;11.52;;
68140;SDS011;54941;52.220;104.306;2022-08-19T13:22:09;24.40;;;14.63;;
68140;SDS011;54941;52.220;104.306;2022-08-19T13:24:53;16.58;;;10.20;;
68140;SDS011;54941;52.220;104.306;2022-08-19T13:27:39;10.90;;;6.75;;
68140;SDS011;54941;52.220;104.306;2022-08-19T13:30:26;16.58;;;10.05;;
68140;SDS011;54941;52.220;104.306;2022-08-19T13:33:11;22.30;;;14.02;;
68140;SDS011;54941;52.220;104.306;2022-08-19T13:35:58;26.35;;;14.98;;
68140;SDS011;54941;52.220;104.306;2022-08-19T13:38:43;24.42;;;12.90;;
68140;SDS011;54941;52.220;104.306;2022-08-19T13:41:28;20.00;;;12.30;;
68140;SDS011;54941;52.220;104.306;2022-08-19T13:44:13;19.23;;;12.13;;
68140;SDS011;54941;52.220;104.306;2022-08-19T13:47:01;15.75;;;9.85;;
68140;SDS011;54941;52.220;104.306;2022-08-19T13:49:47;13.80;;;8.50;;
68140;SDS011;54941;52.220;104.306;2022-08-19T13:52:36;14.35;;;8.73;;
68140;SDS011;54941;52.220;104.306;2022-08-19T13:55:20;28.55;;;15.40;;
68140;SDS011;54941;52.220;104.306;2022-08-19T13:58:06;25.17;;;15.05;;
68140;SDS011;54941;52.220;104.306;2022-08-19T14:00:52;32.83;;;18.60;;
68140;SDS011;54941;52.220;104.306;2022-08-19T14:03:37;28.23;;;15.57;;
68140;SDS011;54941;52.220;104.306;2022-08-19T14:06:22;23.98;;;14.65;;
68140;SDS011;54941;52.220;104.306;2022-08-19T14:09:12;28.02;;;16.48;;
68140;SDS011;54941;52.220;104.306;2022-08-19T14:11:57;28.23;;;16.88;;
68140;SDS011;54941;52.220;104.306;2022-08-19T14:14:42;24.77;;;15.48;;
68140;SDS011;54941;52.220;104.306;2022-08-19T14:17:28;28.08;;;16.48;;
68140;SDS011;54941;52.220;104.306;2022-08-19T14:20:12;20.55;;;13.77;;
68140;SDS011;54941;52.220;104.306;2022-08-19T14:22:57;17.17;;;10.75;;
68140;SDS011;54941;52.220;104.306;2022-08-19T14:25:44;17.05;;;9.02;;
68140;SDS011;54941;52.220;104.306;2022-08-19T14:28:29;15.23;;;9.95;;
68140;SDS011;54941;52.220;104.306;2022-08-19T14:31:15;16.90;;;10.45;;
68140;SDS011;54941;52.220;104.306;2022-08-19T14:34:01;19.17;;;11.93;;
68140;SDS011;54941;52.220;104.306;2022-08-19T14:36:46;20.75;;;14.25;;
68140;SDS011;54941;52.220;104.306;2022-08-19T14:39:31;22.73;;;13.75;;
68140;SDS011;54941;52.220;104.306;2022-08-19T14:42:17;17.98;;;11.93;;
68140;SDS011;54941;52.220;104.306;2022-08-19T14:45:03;20.08;;;12.13;;
68140;SDS011;54941;52.220;104.306;2022-08-19T14:47:49;17.92;;;11.88;;
68140;SDS011;54941;52.220;104.306;2022-08-19T14:50:34;19.73;;;13.63;;
68140;SDS011;54941;52.220;104.306;2022-08-19T14:53:20;22.92;;;13.68;;
68140;SDS011;54941;52.220;104.306;2022-08-19T14:56:08;20.48;;;13.80;;
68140;SDS011;54941;52.220;104.306;2022-08-19T14:58:56;19.52;;;11.60;;
68140;SDS011;54941;52.220;104.306;2022-08-19T15:01:41;21.20;;;13.00;;
68140;SDS011;54941;52.220;104.306;2022-08-19T15:04:26;19.15;;;12.60;;
68140;SDS011;54941;52.220;104.306;2022-08-19T15:07:11;20.13;;;11.88;;
68140;SDS011;54941;52.220;104.306;2022-08-19T15:09:56;17.80;;;11.65;;
68140;SDS011;54941;52.220;104.306;2022-08-19T15:12:41;18.55;;;12.00;;
68140;SDS011;54941;52.220;104.306;2022-08-19T15:15:28;15.93;;;9.90;;
68140;SDS011;54941;52.220;104.306;2022-08-19T15:18:13;19.85;;;11.60;;
68140;SDS011;54941;52.220;104.306;2022-08-19T15:20:58;18.33;;;11.25;;
68140;SDS011;54941;52.220;104.306;2022-08-19T15:23:43;17.63;;;11.05;;
68140;SDS011;54941;52.220;104.306;2022-08-19T15:26:29;17.23;;;11.93;;
68140;SDS011;54941;52.220;104.306;2022-08-19T15:29:14;22.45;;;13.18;;
68140;SDS011;54941;52.220;104.306;2022-08-19T15:32:00;18.15;;;11.88;;
68140;SDS011;54941;52.220;104.306;2022-08-19T15:34:45;19.42;;;12.05;;
68140;SDS011;54941;52.220;104.306;2022-08-19T15:37:30;15.60;;;11.10;;
68140;SDS011;54941;52.220;104.306;2022-08-19T15:40:16;19.15;;;11.90;;
68140;SDS011;54941;52.220;104.306;2022-08-19T15:43:01;19.00;;;12.15;;
68140;SDS011;54941;52.220;104.306;2022-08-19T15:45:46;20.33;;;10.93;;
68140;SDS011;54941;52.220;104.306;2022-08-19T15:48:34;17.00;;;10.88;;
68140;SDS011;54941;52.220;104.306;2022-08-19T15:51:20;21.65;;;11.65;;
68140;SDS011;54941;52.220;104.306;2022-08-19T15:54:06;19.05;;;10.57;;
68140;SDS011;54941;52.220;104.306;2022-08-19T15:56:53;17.75;;;10.73;;
68140;SDS011;54941;52.220;104.306;2022-08-19T15:59:38;17.67;;;10.57;;
68140;SDS011;54941;52.220;104.306;2022-08-19T16:02:23;16.65;;;10.82;;
68140;SDS011;54941;52.220;104.306;2022-08-19T16:05:12;17.17;;;11.15;;
68140;SDS011;54941;52.220;104.306;2022-08-19T16:07:59;18.63;;;11.13;;
68140;SDS011;54941;52.220;104.306;2022-08-19T16:10:44;17.63;;;11.52;;